Latest Weather Observations for Nerriga

IDN60801

Issued at 9:03 pm EDT Saturday 21 October 2017 (issued every 30 minutes, with the page automatically refreshed every 10 minutes)

About weather observations | Map of weather stations | Latest weather observations for NSW | Other Formats
Station Details ID: 069128 Name: NERRIGA AWS Lat: -35.11 Lon: 150.08 Height: 622.0 m
Data from the previous 72 hours. | See also: Recent months at Nerriga
Date/Time
EDT
Temp
°C
App
Temp
°C
Dew
Point
°C
Rel
Hum
%
Delta-T
°C
Wind Press
QNH
hPa
Press
MSL
hPa
Rain since
9am
mm
Dir  Spd
km/h
Gust
km/h
Spd
kts
Gust
kts
21/09:00pm 8.4 5.1 6.4 87 1.0 ESE 13 19 7 10 1018.7 1017.9 0.0
21/08:30pm 8.8 5.5 6.3 84 1.2 ESE 13 17 7 9 1018.4 1017.7 0.0
21/08:00pm 9.3 5.2 6.4 82 1.4 ESE 17 24 9 13 1018.1 1017.3 0.0
21/07:30pm 10.1 6.0 6.4 78 1.8 E 17 22 9 12 1017.8 1017.0 0.0
21/07:00pm 11.6 7.0 6.5 71 2.5 E 20 28 11 15 1017.4 1016.6 0.0
21/06:30pm 13.0 7.7 6.6 65 3.2 E 24 30 13 16 1017.1 1016.3 0.0
21/06:00pm 14.6 10.0 6.4 58 4.1 E 20 28 11 15 1017.0 1016.1 0.0
21/05:30pm 15.5 10.3 5.7 52 4.9 E 22 32 12 17 1017.0 1016.1 0.0
21/05:00pm 16.6 12.2 4.9 46 5.7 ENE 17 26 9 14 1017.2 1016.4 0.0
21/04:30pm 17.4 13.5 5.4 45 6.0 ENE 15 20 8 11 1017.3 1016.5 0.0
21/04:00pm 17.8 14.6 0.9 32 7.7 ENE 7 13 4 7 1017.7 1016.9 0.0
21/03:30pm 17.6 14.9 2.8 37 7.0 SSE 6 20 3 11 1018.1 1017.3 0.0
21/03:00pm 17.7 15.0 2.5 36 7.2 NNW 6 9 3 5 1018.7 1017.9 0.0
21/02:30pm 17.2 15.0 3.1 39 6.7 NE 4 9 2 5 1019.2 1018.4 0.0
21/02:00pm 16.3 12.7 3.0 41 6.3 NE 11 19 6 10 1019.7 1018.9 0.0
21/01:30pm 16.6 13.7 2.6 39 6.6 NNE 7 13 4 7 1020.1 1019.4 0.0
21/01:00pm 15.3 12.4 2.8 43 5.8 E 7 15 4 8 1020.6 1019.8 0.0
21/12:30pm 14.7 11.0 2.3 43 5.7 NNE 11 19 6 10 1021.0 1020.2 0.0
21/12:00pm 14.1 10.9 3.3 48 5.0 E 9 13 5 7 1021.5 1020.8 0.0
21/11:30am 13.7 11.1 4.0 52 4.6 ENE 7 19 4 10 1021.9 1021.2 0.0
21/11:00am 12.9 9.8 3.8 54 4.2 NE 9 17 5 9 1022.3 1021.5 0.0
21/10:30am 11.2 8.6 3.0 57 3.7 SE 6 13 3 7 1022.6 1021.9 0.0
21/10:00am 10.9 6.9 2.7 57 3.7 ESE 13 20 7 11 1022.8 1022.1 0.0
21/09:30am 10.8 7.4 3.8 62 3.2 SSE 11 19 6 10 1022.7 1022.0 0.0
21/09:00am 9.7 6.6 3.4 65 2.8 SSE 9 13 5 7 1022.8 1022.1 0.2
21/08:30am 8.0 5.4 3.1 71 2.2 SSE 6 9 3 5 1022.7 1022.0 0.2
21/08:00am 6.7 4.2 3.9 82 1.2 SSE 6 7 3 4 1022.8 1022.1 0.2
21/07:30am 5.0 3.6 3.3 89 0.7 CALM 0 0 0 0 1022.9 1022.2 0.2
21/07:00am 3.5 1.5 2.3 92 0.5 SSE 2 4 1 2 1022.7 1022.0 0.2
21/06:30am 2.4 0.2 1.1 91 0.5 SSE 2 4 1 2 1022.8 1022.1 0.2
21/06:00am 4.2 2.7 2.9 91 0.5 CALM 0 0 0 0 1022.7 1022.0 0.2
21/05:30am 3.9 1.6 2.6 91 0.5 SSE 4 6 2 3 1022.6 1021.9 0.2
21/05:00am 4.3 1.7 3.0 91 0.5 SSE 6 9 3 5 1022.7 1022.0 0.2
21/04:30am 5.0 2.4 3.0 87 0.9 SSE 6 6 3 3 1022.9 1022.2 0.0
21/04:00am 5.9 2.8 3.7 86 1.0 SSE 9 15 5 8 1023.1 1022.4 0.0
21/03:30am 6.2 3.2 4.2 87 0.9 SSE 9 17 5 9 1023.2 1022.5 0.0
21/03:00am 6.8 3.1 4.5 85 1.0 SSE 13 19 7 10 1023.5 1022.8 0.0
21/02:30am 6.9 3.2 4.6 85 1.0 SSE 13 19 7 10 1023.8 1023.0 0.0
21/02:00am 7.4 3.8 4.9 84 1.1 SSE 13 20 7 11 1024.1 1023.4 0.0
21/01:30am 8.3 4.0 5.4 82 1.4 SSE 17 28 9 15 1024.3 1023.6 0.0
21/01:00am 8.8 4.6 5.9 82 1.4 SSE 17 28 9 15 1024.7 1024.0 0.0
21/12:30am 8.9 4.9 6.5 85 1.2 SSE 17 22 9 12 1024.9 1024.2 0.0
21/12:00am 9.0 5.8 7.0 87 1.0 SE 13 20 7 11 1025.1 1024.4 0.0
 
Date/Time
EDT
Temp
°C
App
Temp
°C
Dew
Point
°C
Rel
Hum
%
Delta-T
°C
Wind Press
QNH
hPa
Press
MSL
hPa
Rain since
9am
mm
Dir  Spd
km/h
Gust
km/h
Spd
kts
Gust
kts
20/11:30pm 8.8 6.2 7.6 92 0.6 SE 11 17 6 9 1025.2 1024.5 0.0
20/11:00pm 9.2 6.9 7.6 90 0.8 SE 9 13 5 7 1025.1 1024.4 0.0
20/10:30pm 9.3 7.1 7.7 90 0.8 SE 9 17 5 9 1025.1 1024.4 0.0
20/10:00pm 9.2 6.3 8.0 92 0.6 SE 13 20 7 11 1025.1 1024.4 0.0
20/09:30pm 9.3 6.8 8.2 93 0.5 SE 11 28 6 15 1025.1 1024.4 0.0
20/09:00pm 9.4 6.6 8.6 95 0.4 SE 13 22 7 12 1025.1 1024.4 0.0
20/08:30pm 9.4 7.8 8.6 95 0.4 SE 7 11 4 6 1024.8 1024.1 0.0
20/08:00pm 9.4 6.2 8.6 95 0.4 SE 15 20 8 11 1024.2 1023.5 0.0
20/07:30pm 9.7 7.0 8.8 94 0.5 SE 13 19 7 10 1024.1 1023.4 0.0
20/07:00pm 9.8 6.3 8.7 93 0.6 SE 17 22 9 12 1023.6 1022.9 0.0
20/06:30pm 10.0 6.6 9.1 94 0.5 ESE 17 24 9 13 1023.1 1022.4 0.0
20/06:00pm 10.1 8.2 9.2 94 0.5 SE 9 15 5 8 1023.0 1022.3 0.0
20/05:30pm 10.3 8.3 8.6 89 0.9 SE 9 15 5 8 1022.5 1021.7 0.0
20/05:00pm 10.5 8.1 8.6 88 1.0 SE 11 20 6 11 1022.3 1021.5 0.0
20/04:30pm 10.2 6.3 8.5 89 0.9 SE 19 26 10 14 1021.9 1021.2 0.0
20/04:00pm 10.3 7.5 8.7 90 0.8 SE 13 24 7 13 1021.8 1021.1 0.0
20/03:30pm 10.3 6.8 8.9 91 0.7 ESE 17 24 9 13 1021.9 1021.2 0.0
20/03:00pm 10.3 7.1 8.6 89 0.9 SE 15 22 8 12 1022.4 1021.6 0.0
20/02:30pm 10.3 6.4 8.6 89 0.9 SE 19 28 10 15 1022.6 1021.9 0.0
20/02:00pm 10.3 6.3 8.9 91 0.7 SE 20 30 11 16 1022.4 1021.6 0.0
20/01:30pm 10.8 7.0 9.1 89 0.9 SE 19 28 10 15 1022.4 1021.6 0.0
20/01:00pm 10.6 7.7 9.8 95 0.4 ESE 15 22 8 12 1022.5 1021.7 0.0
20/12:30pm 11.4 9.5 10.5 94 0.5 ESE 11 17 6 9 1022.3 1021.5 0.0
20/12:00pm 11.4 9.0 10.1 92 0.7 SE 13 20 7 11 1022.6 1021.9 0.0
20/11:30am 11.1 8.3 10.0 93 0.6 SE 15 24 8 13 1022.7 1022.0 0.0
20/11:00am 11.2 9.2 10.0 92 0.6 ESE 11 19 6 10 1022.5 1021.7 0.0
20/10:30am 11.4 9.7 9.7 89 0.9 SE 9 19 5 10 1022.3 1021.5 0.0
20/10:00am 11.7 9.4 10.6 93 0.6 SE 13 20 7 11 1022.2 1021.4 0.0
20/09:30am 11.9 9.4 11.1 95 0.4 SE 15 22 8 12 1021.8 1021.1 0.0
20/09:00am 11.9 10.2 11.1 95 0.4 SE 11 20 6 11 1021.9 1021.2 8.6
20/08:30am 12.7 10.1 12.1 96 0.3 ESE 17 22 9 12 1021.6 1020.9 8.6
20/08:00am 13.5 10.6 12.9 96 0.3 SE 20 28 11 15 1021.2 1020.5 8.6
20/07:30am 15.0 15.4 14.7 98 0.2 W 6 15 3 8 1021.1 1020.3 8.6
20/07:00am 15.0 16.6 14.8 99 0.1 CALM 0 0 0 0 1020.8 1020.0 8.6
20/06:30am 14.9 15.3 14.7 99 0.1 W 6 7 3 4 1020.1 1019.4 8.4
20/06:00am 15.0 15.8 14.8 99 0.1 W 4 6 2 3 1020.0 1019.3 8.4
20/05:30am 15.1 15.9 14.9 99 0.1 W 4 9 2 5 1019.7 1018.9 8.0
20/05:00am 15.3 15.6 15.1 99 0.1 W 7 9 4 5 1019.7 1018.9 7.4
20/04:30am 15.5 17.2 15.2 98 0.2 CALM 0 0 0 0 1019.5 1018.7 6.2
20/04:00am 15.4 17.1 15.1 98 0.2 CALM 0 4 0 2 1019.8 1019.1 5.8
20/03:30am 15.4 15.0 15.1 98 0.2 W 11 15 6 8 1019.9 1019.2 4.8
20/03:00am 15.6 16.6 15.4 99 0.1 W 4 11 2 6 1019.8 1019.1 4.6
20/02:30am 15.7 16.1 15.2 97 0.3 W 7 13 4 7 1020.4 1019.6 3.2
20/02:00am 16.2 16.9 16.2 100 0.0 W 7 9 4 5 1020.7 1019.9 2.0
20/01:30am 16.2 17.4 15.9 98 0.2 W 4 6 2 3 1020.9 1020.1 2.0
20/01:00am 16.2 17.4 15.9 98 0.2 W 4 7 2 4 1021.1 1020.3 2.0
20/12:30am 16.3 17.4 15.7 96 0.4 W 4 6 2 3 1021.3 1020.6 1.4
20/12:00am 16.4 17.9 15.6 95 0.5 W 2 4 1 2 1021.6 1020.9 1.2
 
Date/Time
EDT
Temp
°C
App
Temp
°C
Dew
Point
°C
Rel
Hum
%
Delta-T
°C
Wind Press
QNH
hPa
Press
MSL
hPa
Rain since
9am
mm
Dir  Spd
km/h
Gust
km/h
Spd
kts
Gust
kts
19/11:30pm 16.7 17.3 15.2 91 0.9 W 6 9 3 5 1021.3 1020.6 0.6
19/11:00pm 17.3 17.6 14.9 86 1.4 W 7 13 4 7 1021.7 1021.0 0.0
19/10:30pm 17.7 16.8 14.8 83 1.7 W 13 22 7 12 1021.9 1021.2 0.0
19/10:00pm 17.7 17.7 15.1 85 1.6 WSW 9 17 5 9 1021.9 1021.2 0.0
19/09:30pm 18.5 16.8 14.8 79 2.2 WSW 17 26 9 14 1021.8 1021.1 0.0
19/09:00pm 20.8 18.4 13.7 64 4.2 WSW 19 28 10 15 1021.4 1020.7 0.0
19/08:30pm 21.3 18.2 13.5 61 4.6 W 22 33 12 18 1021.4 1020.7 0.0
19/08:00pm 22.4 20.3 12.4 53 5.8 W 15 26 8 14 1020.8 1020.0 0.0
19/07:30pm 22.6 21.3 12.5 53 5.9 NW 11 19 6 10 1020.7 1019.9 0.0
19/07:00pm 22.9 20.4 12.2 51 6.2 NW 17 22 9 12 1020.5 1019.7 0.0
19/06:30pm 23.6 21.1 12.3 49 6.6 WNW 17 26 9 14 1020.4 1019.6 0.0
19/06:00pm 23.8 20.4 12.4 48 6.7 W 22 30 12 16 1020.0 1019.3 0.0
19/05:30pm 24.5 21.4 12.1 46 7.3 WNW 20 32 11 17 1019.8 1019.1 0.0
19/05:00pm 25.1 21.2 12.0 44 7.7 WNW 24 32 13 17 1019.9 1019.2 0.0
19/04:30pm 25.5 21.5 11.7 42 8.1 WNW 24 35 13 19 1020.0 1019.3 0.0
19/04:00pm 26.2 21.4 11.5 40 8.6 NW 28 39 15 21 1020.1 1019.4 0.0
19/03:30pm 27.5 23.2 11.9 38 9.2 WNW 26 37 14 20 1020.2 1019.5 0.0
19/03:00pm 27.3 22.1 11.7 37 9.2 WNW 30 41 16 22 1020.6 1019.8 0.0
19/02:30pm 26.1 22.0 11.5 40 8.5 WNW 24 33 13 18 1021.1 1020.3 0.0
19/02:00pm 25.8 20.2 11.6 41 8.3 NW 32 46 17 25 1021.6 1020.9 0.0
19/01:33pm 26.7 21.9 11.6 39 8.9 NW 28 46 15 25 1021.7 1021.0 0.0
19/01:30pm 26.2 21.9 11.9 41 8.4 NW 26 41 14 22 1021.8 1021.1 0.0
19/01:05pm 26.6 21.0 11.5 39 8.9 WNW 32 50 17 27 1021.9 1021.2 0.0
19/01:00pm 26.6 22.0 12.3 41 8.5 WNW 28 41 15 22 1022.3 1021.5 0.0
19/12:30pm 26.5 21.0 11.8 40 8.7 WNW 32 48 17 26 1022.4 1021.6 0.0
19/12:00pm 26.4 22.1 12.1 41 8.4 WNW 26 37 14 20 1022.7 1022.0 0.0
19/11:30am 26.0 22.1 12.1 42 8.2 WNW 24 33 13 18 1023.2 1022.5 0.0
19/11:00am 25.3 21.9 12.5 45 7.6 NW 22 32 12 17 1023.8 1023.0 0.0
19/10:30am 22.9 20.3 11.9 50 6.4 NW 17 28 9 15 1024.0 1023.3 0.0
19/10:00am 20.7 19.4 12.4 59 4.8 NNW 11 17 6 9 1024.4 1023.7 0.0
19/09:30am 18.7 17.2 12.0 65 3.8 N 11 20 6 11 1024.8 1024.1 0.0
19/09:00am 16.7 16.2 12.5 76 2.4 N 7 13 4 7 1025.0 1024.3 0.0
19/08:30am 15.4 14.2 12.9 85 1.4 N 11 15 6 8 1025.1 1024.4 0.0
19/08:00am 13.8 12.9 12.7 93 0.6 N 9 13 5 7 1025.2 1024.5 0.0
19/07:30am 13.0 13.0 12.4 96 0.3 N 4 7 2 4 1025.0 1024.3 0.0
19/07:00am 12.5 12.8 12.2 98 0.2 N 2 4 1 2 1024.7 1024.0 0.0
19/06:30am 11.6 11.3 11.3 98 0.2 N 4 4 2 2 1024.4 1023.7 0.0
19/06:00am 12.1 11.8 11.6 97 0.3 N 4 4 2 2 1024.4 1023.7 0.0
19/05:30am 12.3 12.1 11.8 97 0.3 N 4 6 2 3 1024.2 1023.5 0.0
19/05:00am 12.3 12.1 11.7 96 0.3 N 4 6 2 3 1024.2 1023.5 0.0
19/04:30am 12.6 12.4 11.8 95 0.4 N 4 6 2 3 1024.1 1023.4 0.0
19/04:00am 12.7 12.1 11.8 94 0.5 N 6 9 3 5 1024.1 1023.4 0.0
19/03:30am 12.9 12.2 11.5 91 0.8 N 6 11 3 6 1024.3 1023.6 0.0
19/03:00am 13.3 12.6 11.9 91 0.8 N 7 13 4 7 1024.4 1023.7 0.0
19/02:30am 13.4 12.3 11.8 90 0.9 N 9 15 5 8 1024.7 1024.0 0.0
19/02:00am 13.6 11.8 12.0 90 0.9 N 13 20 7 11 1024.7 1024.0 0.0
19/01:30am 13.5 12.3 11.7 89 1.0 N 9 17 5 9 1025.3 1024.7 0.0
19/01:00am 13.7 12.2 11.8 88 1.0 NNE 11 17 6 9 1025.7 1025.0 0.0
19/12:30am 13.7 12.2 11.8 88 1.1 NNE 11 17 6 9 1025.9 1025.2 0.0
19/12:00am 13.8 11.9 11.8 88 1.1 N 13 19 7 10 1025.9 1025.2 0.0
 
Date/Time
EDT
Temp
°C
App
Temp
°C
Dew
Point
°C
Rel
Hum
%
Delta-T
°C
Wind Press
QNH
hPa
Press
MSL
hPa
Rain since
9am
mm
Dir  Spd
km/h
Gust
km/h
Spd
kts
Gust
kts
18/11:30pm 13.8 12.2 11.5 86 1.3 N 11 20 6 11 1026.1 1025.4 0.0
18/11:00pm 13.9 12.3 11.4 85 1.4 N 11 19 6 10 1026.3 1025.6 0.0
18/10:30pm 14.3 12.3 11.5 83 1.5 N 13 22 7 12 1026.3 1025.6 0.0
18/10:00pm 14.6 12.6 11.6 82 1.7 N 13 20 7 11 1026.5 1025.8 0.0
18/09:30pm 14.9 13.0 11.9 82 1.7 NNE 13 22 7 12 1026.5 1025.8 0.0

Other Formats:

Comma delimited format used in spreadsheet applications
http://www.bom.gov.au/fwo/IDN60801/IDN60801.94943.axf

JavaScript Object Notation format (JSON) in row-major order
http://www.bom.gov.au/fwo/IDN60801/IDN60801.94943.json